Time;durP1;ratioP1;P1;durP2;ratioP2;P2;SDS_P1;SDS_P2;PMS_P1;PMS_P2;Temp;Humidity;BMP_temperature;BMP_pressure;BME280_temperature;BME280_humidity;BME280_pressure;Samples;Min_cycle;Max_cycle;Signal;HPM_P1;HPM_P2
2021/12/18 00:01:54;;;;;;;2.90;2.33;;;;;;;9.28;41.05;101136.66;4996527;28;20572;-75
2021/12/18 00:04:22;;;;;;;2.92;1.83;;;;;;;9.32;41.09;101144.00;4996408;28;20121;-75
2021/12/18 00:06:55;;;;;;;4.15;1.45;;;;;;;9.36;39.83;101150.50;4996722;28;20064;-75
2021/12/18 00:09:25;;;;;;;1.98;1.80;;;;;;;9.53;39.01;101140.50;4996399;28;20030;-75
2021/12/18 00:11:54;;;;;;;1.58;1.45;;;;;;;9.50;39.56;101136.44;4996905;28;20125;-75
2021/12/18 00:14:20;;;;;;;2.47;1.33;;;;;;;9.33;40.55;101137.31;4997216;28;20077;-75
2021/12/18 00:16:48;;;;;;;1.67;1.33;;;;;;;9.38;39.60;101137.13;4996094;28;20433;-74
2021/12/18 00:19:17;;;;;;;1.50;1.27;;;;;;;9.39;39.28;101132.38;4995906;28;20050;-75
2021/12/18 00:21:45;;;;;;;1.33;1.20;;;;;;;9.40;39.16;101134.81;4996181;28;20031;-75
2021/12/18 00:24:13;;;;;;;1.70;1.60;;;;;;;9.39;39.45;101138.75;4996388;28;20065;-75
2021/12/18 00:26:42;;;;;;;1.25;1.15;;;;;;;9.42;39.97;101132.50;4995979;28;20096;-75
2021/12/18 00:29:14;;;;;;;0.90;0.90;;;;;;;9.35;39.72;101137.78;4995996;28;20037;-75
2021/12/18 00:31:45;;;;;;;1.27;1.10;;;;;;;9.52;39.14;101138.88;4995863;28;20033;-75
2021/12/18 00:34:13;;;;;;;3.72;1.67;;;;;;;9.68;38.45;101139.94;4996375;28;20052;-75
2021/12/18 00:36:45;;;;;;;1.05;1.00;;;;;;;9.78;38.37;101139.56;4995941;28;20030;-75
2021/12/18 00:39:13;;;;;;;1.35;1.00;;;;;;;9.86;38.33;101133.16;4996092;28;20037;-75
2021/12/18 00:44:13;;;;;;;1.30;1.20;;;;;;;9.94;37.97;101140.63;4996768;28;20030;-75
2021/12/18 00:46:46;;;;;;;1.88;1.10;;;;;;;9.91;38.31;101141.31;4995553;28;20030;-75
2021/12/18 00:49:15;;;;;;;1.50;1.27;;;;;;;10.00;38.71;101130.13;4996131;28;20034;-75
2021/12/18 00:51:44;;;;;;;1.13;1.02;;;;;;;10.11;38.35;101136.13;4996823;28;20062;-75
2021/12/18 00:54:13;;;;;;;1.25;1.15;;;;;;;10.25;38.74;101124.78;4995516;28;20027;-75
2021/12/18 00:56:43;;;;;;;1.40;1.30;;;;;;;10.27;39.05;101122.47;4995862;28;20532;-75
2021/12/18 00:59:09;;;;;;;1.17;1.08;;;;;;;10.43;38.78;101132.66;4995425;28;20492;-75
2021/12/18 01:01:35;;;;;;;1.08;1.00;;;;;;;10.58;39.14;101128.44;4995694;28;20038;-75
2021/12/18 01:04:04;;;;;;;1.40;1.30;;;;;;;10.52;39.04;101123.44;4996047;28;20444;-74
2021/12/18 01:06:32;;;;;;;1.98;0.82;;;;;;;10.55;39.80;101131.13;4995207;28;20065;-75
2021/12/18 01:08:58;;;;;;;3.38;2.75;;;;;;;10.71;40.77;101144.06;4995889;28;20389;-75
2021/12/18 01:25:19;;;;;;;1.77;1.50;;;;;;;10.67;43.87;101131.16;4996774;28;20061;-75
2021/12/18 01:27:48;;;;;;;2.30;1.50;;;;;;;10.54;45.01;101129.47;4995439;28;20034;-75
2021/12/18 01:30:17;;;;;;;1.35;1.00;;;;;;;10.50;45.62;101137.69;4997390;28;20126;-75
2021/12/18 01:32:46;;;;;;;2.22;1.73;;;;;;;10.49;46.46;101136.88;4998418;28;20038;-75
2021/12/18 01:35:14;;;;;;;2.33;1.35;;;;;;;10.45;46.69;101135.94;4998205;28;20038;-74
2021/12/18 01:37:43;;;;;;;2.47;1.73;;;;;;;10.36;46.60;101126.00;4995025;28;20436;-74
2021/12/18 01:40:09;;;;;;;2.13;1.48;;;;;;;10.56;46.11;101130.78;4994804;28;20066;-74
2021/12/18 01:53:13;;;;;;;6.25;0.82;;;;;;;10.33;51.74;101149.75;4995366;28;20097;-74
2021/12/18 01:55:41;;;;;;;0.90;0.88;;;;;;;10.29;52.30;101157.16;4994269;28;20041;-75
2021/12/18 01:58:10;;;;;;;2.35;1.15;;;;;;;10.19;52.87;101144.41;4962378;28;20034;-75
2021/12/18 02:00:43;;;;;;;1.88;1.27;;;;;;;10.19;53.23;101149.16;4994886;28;20125;-75
2021/12/18 02:03:14;;;;;;;1.90;1.48;;;;;;;10.10;53.98;101152.00;4994214;28;20084;-74
2021/12/18 02:05:40;;;;;;;4.10;1.25;;;;;;;10.15;55.05;101149.00;4994095;28;20041;-74
2021/12/18 02:08:09;;;;;;;1.52;0.88;;;;;;;10.13;55.15;101151.34;4994233;28;20031;-75
2021/12/18 02:10:49;;;;;;;1.38;1.20;;;;;;;10.15;55.89;101153.78;4994568;28;20038;-75
2021/12/18 02:21:27;;;;;;;3.90;1.52;;;;;;;10.19;55.56;101129.69;4995547;28;20045;-75
2021/12/18 02:23:53;;;;;;;4.07;1.20;;;;;;;10.20;54.59;101134.91;4994229;28;20041;-76
2021/12/18 02:26:22;;;;;;;2.38;1.27;;;;;;;10.30;54.20;101150.44;5010251;28;20495;-75
2021/12/18 02:28:49;;;;;;;2.17;1.40;;;;;;;10.33;53.98;101165.63;4993849;28;20126;-75
2021/12/18 02:31:19;;;;;;;1.33;1.23;;;;;;;10.31;53.69;101152.06;4994094;28;20124;-75
2021/12/18 02:33:47;;;;;;;2.95;1.40;;;;;;;10.37;52.80;101161.81;4993807;28;20038;-75
2021/12/18 02:36:24;;;;;;;1.88;1.20;;;;;;;10.38;53.04;101160.66;5010037;28;20469;-75
2021/12/18 02:44:03;;;;;;;;;;;;;;;10.34;52.10;101145.84;4995242;28;20038;-75
2021/12/18 02:46:31;;;;;;;1.42;1.02;;;;;;;10.32;52.16;101153.69;4993435;28;19964;-75
2021/12/18 02:49:04;;;;;;;2.13;0.80;;;;;;;10.35;51.25;101153.03;4993522;28;20034;-75
2021/12/18 02:51:29;;;;;;;2.50;1.10;;;;;;;10.40;51.52;101160.34;4993564;28;20125;-76
2021/12/18 02:53:55;;;;;;;2.78;1.63;;;;;;;10.41;50.72;101151.66;4993435;28;20042;-75
2021/12/18 02:56:23;;;;;;;1.77;1.50;;;;;;;10.45;50.23;101158.19;4993465;28;20031;-75
2021/12/18 02:58:54;;;;;;;1.85;1.20;;;;;;;10.56;49.57;101147.47;4995079;28;20030;-75
2021/12/18 03:01:27;;;;;;;2.45;1.13;;;;;;;10.54;49.68;101151.72;4994056;28;20038;-75
2021/12/18 03:03:58;;;;;;;1.67;1.30;;;;;;;10.45;50.12;101154.59;4993389;28;20084;-75
2021/12/18 03:06:35;;;;;;;2.47;1.15;;;;;;;10.44;50.56;101139.06;4993843;28;20469;-75
2021/12/18 03:20:57;;;;;;;1.77;1.48;;;;;;;10.28;49.29;101158.31;4994961;28;20061;-75
2021/12/18 03:25:55;;;;;;;1.70;0.90;;;;;;;10.26;49.90;101177.28;4985881;28;20477;-75
2021/12/18 03:28:25;;;;;;;1.77;1.17;;;;;;;10.29;49.83;101159.13;4993086;28;20114;-75
2021/12/18 03:30:56;;;;;;;2.88;1.00;;;;;;;10.27;49.41;101172.53;4993185;28;20054;-75
2021/12/18 03:33:24;;;;;;;2.50;1.30;;;;;;;10.22;49.51;101165.16;4994593;28;20373;-75
2021/12/18 03:35:55;;;;;;;1.23;0.85;;;;;;;10.23;49.33;101183.50;4993251;28;20027;-75
2021/12/18 03:38:23;;;;;;;1.98;1.00;;;;;;;10.23;48.49;101166.81;4993089;28;20088;-75
2021/12/18 03:40:49;;;;;;;1.25;0.88;;;;;;;10.23;49.05;101177.94;4993169;28;20027;-75
2021/12/18 03:43:24;;;;;;;3.30;1.20;;;;;;;10.14;49.32;101171.59;4993130;28;20022;-75
2021/12/18 03:45:49;;;;;;;1.10;1.00;;;;;;;10.17;49.71;101174.53;4993329;28;20458;-75
2021/12/18 03:48:21;;;;;;;1.65;1.50;;;;;;;10.10;49.54;101174.22;4993373;28;20033;-76
2021/12/18 03:50:51;;;;;;;1.30;1.20;;;;;;;10.13;48.95;101172.75;4995147;28;20129;-75
2021/12/18 03:53:20;;;;;;;7.15;1.27;;;;;;;10.16;49.04;101172.06;4993750;28;20030;-75
2021/12/18 03:55:48;;;;;;;3.00;1.30;;;;;;;10.18;49.02;101180.91;4993620;28;20031;-75
2021/12/18 03:58:18;;;;;;;1.88;1.13;;;;;;;10.14;49.44;101191.88;4993008;28;20031;-75
2021/12/18 04:00:50;;;;;;;1.55;1.15;;;;;;;10.10;49.45;101179.81;4993184;28;20034;-75
2021/12/18 04:03:15;;;;;;;2.78;1.17;;;;;;;10.10;49.38;101188.13;4992976;28;20087;-75
2021/12/18 04:05:46;;;;;;;4.13;1.48;;;;;;;9.92;49.82;101190.19;4993511;28;20030;-75
2021/12/18 04:08:18;;;;;;;3.33;1.40;;;;;;;10.06;48.25;101189.13;4994720;28;20437;-75
2021/12/18 04:10:44;;;;;;;2.22;1.27;;;;;;;10.11;47.30;101197.28;4996617;28;20030;-76
2021/12/18 04:13:12;;;;;;;1.95;1.05;;;;;;;10.08;47.61;101197.97;4995419;28;20030;-75
2021/12/18 04:15:41;;;;;;;1.00;1.00;;;;;;;10.07;46.59;101194.38;4994754;28;20033;-75
2021/12/18 04:18:09;;;;;;;2.28;1.27;;;;;;;10.14;46.47;101230.00;4996770;28;20091;-75
2021/12/18 04:20:37;;;;;;;1.45;1.00;;;;;;;10.08;47.21;101218.25;4995716;28;20489;-75
2021/12/18 04:23:06;;;;;;;1.85;0.98;;;;;;;10.05;47.42;101220.88;4996476;28;20030;-75
2021/12/18 04:25:36;;;;;;;3.50;1.30;;;;;;;10.05;46.31;101215.31;4996278;28;20528;-75
2021/12/18 04:28:05;;;;;;;1.58;1.17;;;;;;;10.10;45.14;101212.34;4997111;28;20030;-75
2021/12/18 04:30:34;;;;;;;2.70;1.27;;;;;;;10.09;45.08;101219.06;4996098;28;20034;-76
2021/12/18 04:33:03;;;;;;;2.45;1.45;;;;;;;10.05;45.92;101206.97;4995906;28;20045;-76
2021/12/18 04:35:29;;;;;;;4.78;1.83;;;;;;;10.03;46.44;101218.44;4996371;28;20473;-75
2021/12/18 04:37:57;;;;;;;0.98;0.90;;;;;;;9.93;45.94;101218.81;4995939;28;20100;-75
2021/12/18 04:40:28;;;;;;;2.35;1.05;;;;;;;9.83;45.93;101202.50;4996265;28;20465;-75
2021/12/18 04:42:54;;;;;;;8.38;1.25;;;;;;;9.92;44.70;101187.41;4997383;28;20027;-75
2021/12/18 04:45:23;;;;;;;4.90;1.17;;;;;;;9.91;45.63;101216.38;4995665;28;20030;-75
2021/12/18 04:47:49;;;;;;;3.05;1.20;;;;;;;9.92;45.48;101197.72;4996175;28;20029;-75
2021/12/18 04:50:18;;;;;;;2.95;1.35;;;;;;;9.89;45.57;101195.59;4995921;28;20382;-75
2021/12/18 04:52:46;;;;;;;4.97;1.33;;;;;;;9.81;45.93;101210.38;4995895;28;20089;-75
2021/12/18 04:55:24;;;;;;;3.50;2.40;;;;;;;9.82;45.16;101190.56;4995808;28;20120;-75
2021/12/18 04:57:54;;;;;;;9.77;4.82;;;;;;;9.77;45.23;101187.16;4995593;28;20030;-75
2021/12/18 05:00:20;;;;;;;5.63;2.00;;;;;;;9.77;45.29;101199.09;4995592;28;20041;-75
2021/12/18 05:02:51;;;;;;;2.47;1.40;;;;;;;9.69;45.70;101203.53;4995441;28;20095;-75
2021/12/18 05:05:18;;;;;;;7.45;1.30;;;;;;;9.68;45.41;101201.06;4995599;28;20425;-75
2021/12/18 05:07:44;;;;;;;4.28;1.33;;;;;;;9.67;44.98;101222.50;4995971;28;20508;-75
2021/12/18 05:10:13;;;;;;;2.85;2.28;;;;;;;9.71;44.48;101197.66;4995587;28;20030;-75
2021/12/18 05:12:39;;;;;;;5.28;1.10;;;;;;;9.70;43.99;101223.81;4995297;28;20468;-76
2021/12/18 05:15:10;;;;;;;6.60;1.45;;;;;;;9.66;44.14;101190.31;4995477;28;20033;-75
2021/12/18 05:17:42;;;;;;;4.80;1.35;;;;;;;9.56;44.49;101199.00;4995366;28;20492;-75
2021/12/18 05:20:08;;;;;;;2.08;1.40;;;;;;;9.54;43.91;101200.47;4994693;28;20141;-75
2021/12/18 05:22:34;;;;;;;5.95;1.17;;;;;;;9.56;43.19;101209.28;4994787;28;20026;-76
2021/12/18 05:25:09;;;;;;;3.50;1.10;;;;;;;9.53;43.37;101194.09;4994798;28;20118;-75
2021/12/18 05:27:44;;;;;;;4.90;1.23;;;;;;;9.49;43.34;101192.31;4994799;28;20027;-75
2021/12/18 05:30:10;;;;;;;2.00;0.98;;;;;;;9.45;43.26;101187.41;4994831;28;20037;-75
2021/12/18 05:32:39;;;;;;;2.38;1.25;;;;;;;9.52;42.35;101202.75;4995664;28;20022;-76
2021/12/18 05:35:05;;;;;;;1.45;1.05;;;;;;;9.53;41.96;101187.72;4994753;28;20461;-75
2021/12/18 05:37:47;;;;;;;3.22;1.17;;;;;;;9.57;41.80;101202.59;4994766;28;20026;-75
2021/12/18 05:40:16;;;;;;;11.90;1.27;;;;;;;9.51;42.27;101176.94;4994918;28;20465;-75
2021/12/18 05:42:42;;;;;;;4.55;1.20;;;;;;;9.44;42.09;101185.78;4994567;28;20027;-75
2021/12/18 05:45:13;;;;;;;4.78;1.27;;;;;;;9.42;42.54;101190.84;4994489;28;20088;-75
2021/12/18 05:47:38;;;;;;;3.47;1.40;;;;;;;9.40;42.79;101212.59;4995223;28;20069;-75
2021/12/18 05:50:09;;;;;;;2.83;1.15;;;;;;;9.43;42.16;101227.81;4995091;28;20117;-75
2021/12/18 05:52:34;;;;;;;1.75;1.20;;;;;;;9.32;41.64;101219.00;4995107;28;20050;-75
2021/12/18 05:55:04;;;;;;;3.90;1.33;;;;;;;9.49;41.05;101209.00;4994738;28;20477;-76
2021/12/18 05:57:30;;;;;;;1.80;0.90;;;;;;;9.42;40.81;101220.59;4994707;28;20430;-75
2021/12/18 05:59:55;;;;;;;1.27;1.17;;;;;;;9.37;40.54;101234.66;4994843;28;20077;-75
2021/12/18 06:02:23;;;;;;;2.75;1.35;;;;;;;9.29;41.10;101208.53;4994680;28;20106;-75
2021/12/18 06:04:49;;;;;;;7.45;1.40;;;;;;;9.28;40.99;101220.78;4994393;28;20038;-75
2021/12/18 06:07:29;;;;;;;4.38;2.38;;;;;;;9.20;41.26;101210.50;4996047;28;20030;-75
2021/12/18 06:09:58;;;;;;;2.10;1.60;;;;;;;9.21;41.01;101231.56;4995637;28;20444;-75
2021/12/18 06:12:29;;;;;;;1.33;1.23;;;;;;;9.35;40.69;101226.66;5010185;28;20018;-75
2021/12/18 06:14:58;;;;;;;1.40;1.30;;;;;;;9.39;40.53;101226.81;4994217;28;20480;-75
2021/12/18 06:17:26;;;;;;;3.78;1.45;;;;;;;9.32;40.88;101226.47;4994014;28;20042;-75
2021/12/18 06:19:52;;;;;;;1.92;1.13;;;;;;;9.25;40.81;101249.22;4993835;28;20416;-75
2021/12/18 06:22:17;;;;;;;3.33;1.10;;;;;;;9.34;40.40;101238.91;4994051;28;20124;-76
2021/12/18 06:24:43;;;;;;;1.05;0.90;;;;;;;9.30;40.82;101251.81;4994086;28;20117;-75
2021/12/18 06:27:08;;;;;;;5.28;1.30;;;;;;;9.21;41.25;101237.13;4994375;28;20469;-75
2021/12/18 06:29:34;;;;;;;3.90;1.05;;;;;;;9.23;41.55;101251.50;4993756;28;20487;-77
2021/12/18 06:32:06;;;;;;;1.38;0.90;;;;;;;9.18;41.49;101248.91;4994092;28;20030;-75
2021/12/18 06:34:32;;;;;;;4.35;1.30;;;;;;;9.15;41.71;101243.97;4994004;28;20037;-76
2021/12/18 06:37:01;;;;;;;2.28;1.33;;;;;;;9.33;41.25;101258.69;4993457;28;20477;-75
2021/12/18 06:39:29;;;;;;;5.97;1.42;;;;;;;9.48;40.37;101221.22;4993521;28;20128;-75
2021/12/18 06:41:57;;;;;;;5.00;1.52;;;;;;;9.66;40.90;101242.28;4993729;28;20026;-75
2021/12/18 06:44:26;;;;;;;2.58;1.52;;;;;;;9.57;41.13;101233.97;4993980;28;20042;-75
2021/12/18 06:46:52;;;;;;;5.22;1.63;;;;;;;9.43;41.31;101225.84;4993742;28;20028;-75
2021/12/18 06:49:20;;;;;;;6.30;1.83;;;;;;;9.35;40.31;101239.72;4994667;28;20041;-75
2021/12/18 06:51:49;;;;;;;3.78;1.48;;;;;;;9.24;40.86;101258.69;4995016;28;20369;-76
2021/12/18 06:54:20;;;;;;;1.70;1.30;;;;;;;9.25;40.73;101263.09;4994250;28;20397;-75
2021/12/18 06:56:48;;;;;;;7.65;1.58;;;;;;;9.19;40.87;101244.97;4993410;28;20066;-75
2021/12/18 06:59:14;;;;;;;1.85;1.70;;;;;;;9.17;40.60;101255.59;4993624;28;20049;-76
2021/12/18 07:01:42;;;;;;;2.80;1.75;;;;;;;9.17;40.29;101288.91;4993840;28;20053;-75
2021/12/18 07:04:11;;;;;;;5.00;2.00;;;;;;;9.10;40.17;101274.69;4993288;28;20121;-75
2021/12/18 07:06:43;;;;;;;2.55;1.48;;;;;;;9.03;40.60;101268.81;4993712;28;20096;-75
2021/12/18 07:09:14;;;;;;;3.53;1.63;;;;;;;9.12;40.45;101266.88;4993480;28;20362;-74
2021/12/18 07:11:40;;;;;;;2.38;1.25;;;;;;;9.15;40.07;101274.53;4993235;28;20037;-74
2021/12/18 07:14:06;;;;;;;4.80;1.23;;;;;;;9.17;40.02;101294.47;4993403;28;20046;-74
2021/12/18 07:16:31;;;;;;;2.00;1.20;;;;;;;9.14;39.92;101293.16;4993154;28;20053;-75
2021/12/18 07:18:57;;;;;;;2.63;1.23;;;;;;;9.17;39.73;101295.28;4993096;28;20058;-74
2021/12/18 07:24:09;;;;;;;7.13;1.45;;;;;;;9.18;39.81;101312.75;4994813;28;20049;-75
2021/12/18 07:26:38;;;;;;;2.20;1.60;;;;;;;9.12;40.73;101334.31;4992965;28;20030;-74
2021/12/18 07:29:06;;;;;;;2.30;1.40;;;;;;;9.06;39.30;101301.50;4993318;28;20521;-75
2021/12/18 07:31:34;;;;;;;3.95;1.92;;;;;;;9.45;38.85;101308.84;4993031;28;20026;-75
2021/12/18 07:34:00;;;;;;;3.97;1.77;;;;;;;9.32;38.94;101327.31;4993498;28;20445;-74
2021/12/18 07:36:29;;;;;;;2.15;1.67;;;;;;;9.37;38.81;101318.78;4993023;28;20030;-74
2021/12/18 07:39:00;;;;;;;4.28;1.10;;;;;;;9.76;39.17;101342.00;4992999;28;20038;-74
2021/12/18 07:41:25;;;;;;;3.83;1.55;;;;;;;9.96;39.15;101335.75;4993480;28;20029;-74
2021/12/18 07:43:54;;;;;;;3.42;1.70;;;;;;;9.62;39.33;101330.22;4992905;28;20397;-74
2021/12/18 07:46:22;;;;;;;2.75;1.60;;;;;;;9.93;38.44;101316.94;4993034;28;20492;-74
2021/12/18 07:48:53;;;;;;;6.15;2.60;;;;;;;10.21;38.03;101339.56;4993033;28;20034;-75
2021/12/18 07:51:22;;;;;;;9.20;7.03;;;;;;;10.32;38.40;101330.91;4996808;28;20022;-75
2021/12/18 07:53:50;;;;;;;3.35;1.67;;;;;;;10.38;38.58;101333.16;4997034;28;20125;-74
2021/12/18 07:56:19;;;;;;;2.05;1.25;;;;;;;10.65;37.42;101345.00;4997205;28;20030;-75
2021/12/18 07:58:49;;;;;;;1.42;1.20;;;;;;;10.96;37.44;101345.47;4996594;28;20034;-75
2021/12/18 08:01:19;;;;;;;3.15;1.30;;;;;;;11.02;37.12;101333.00;4996576;28;20040;-75
2021/12/18 08:03:51;;;;;;;3.65;1.33;;;;;;;11.07;36.92;101339.50;4996547;28;20089;-74
2021/12/18 08:06:19;;;;;;;4.45;2.53;;;;;;;11.29;36.56;101353.09;4996479;28;20117;-75
2021/12/18 08:08:47;;;;;;;4.50;2.30;;;;;;;10.88;37.94;101351.09;4996833;28;20030;-75
2021/12/18 08:11:16;;;;;;;4.63;2.55;;;;;;;10.70;37.74;101342.00;4998002;28;20030;-74
2021/12/18 08:13:42;;;;;;;4.68;2.92;;;;;;;11.46;37.49;101349.38;4998055;28;20105;-75
2021/12/18 08:16:08;;;;;;;7.80;2.25;;;;;;;11.14;37.22;101364.88;4996973;28;20053;-73
2021/12/18 08:18:36;;;;;;;2.95;2.60;;;;;;;11.98;36.47;101372.03;5013942;28;20051;-78
2021/12/18 08:21:02;;;;;;;4.22;2.25;;;;;;;11.37;37.43;101355.03;5018394;28;20072;-79
2021/12/18 08:23:30;;;;;;;6.32;5.15;;;;;;;11.16;36.59;101359.75;5018707;28;20006;-79
2021/12/18 08:25:55;;;;;;;9.02;6.30;;;;;;;11.36;36.56;101358.97;5019850;28;20073;-77
2021/12/18 08:28:24;;;;;;;7.40;6.45;;;;;;;11.50;36.67;101364.25;5016617;28;20010;-79
2021/12/18 08:30:53;;;;;;;4.53;2.38;;;;;;;11.40;37.03;101348.78;5018886;28;20053;-80
2021/12/18 08:33:21;;;;;;;4.50;3.42;;;;;;;12.27;36.39;101343.19;5020269;28;20074;-77
2021/12/18 08:35:49;;;;;;;4.93;3.05;;;;;;;11.22;37.04;101347.25;5021128;28;20030;-79
2021/12/18 08:38:18;;;;;;;3.30;2.38;;;;;;;11.46;37.29;101344.63;5010823;28;20026;-77
2021/12/18 08:40:44;;;;;;;7.70;2.67;;;;;;;11.64;36.93;101344.47;5010878;28;20102;-78
2021/12/18 08:43:09;;;;;;;3.33;2.40;;;;;;;11.56;35.52;101351.75;5017146;28;20094;-80
2021/12/18 08:45:36;;;;;;;8.20;4.68;;;;;;;11.70;35.83;101373.75;5019848;28;20039;-78
2021/12/18 08:48:02;;;;;;;3.63;2.67;;;;;;;12.25;34.31;101355.84;5006174;28;20061;-79
2021/12/18 08:50:34;;;;;;;4.75;4.00;;;;;;;11.98;35.03;101380.41;5006989;28;20456;-79
2021/12/18 08:53:00;;;;;;;6.63;3.50;;;;;;;11.91;35.49;101362.59;5005737;28;20113;-78
2021/12/18 08:55:26;;;;;;;4.95;1.80;;;;;;;11.53;36.25;101369.16;5004106;28;20444;-78
2021/12/18 08:57:52;;;;;;;2.30;1.92;;;;;;;11.65;35.46;101366.41;5005724;28;20034;-77
2021/12/18 09:00:23;;;;;;;4.65;1.92;;;;;;;11.89;35.67;101401.19;5004269;28;20034;-79
2021/12/18 09:02:58;;;;;;;7.53;2.20;;;;;;;11.69;36.11;101383.28;5005357;28;20425;-78
2021/12/18 09:05:25;;;;;;;4.85;3.13;;;;;;;11.70;36.15;101404.44;5003643;28;20094;-79
2021/12/18 09:07:50;;;;;;;6.20;2.53;;;;;;;11.89;35.57;101392.81;5005421;28;20054;-78
2021/12/18 09:10:16;;;;;;;5.32;2.50;;;;;;;12.16;35.12;101391.41;4999453;28;20038;-75
2021/12/18 09:12:43;;;;;;;8.73;3.05;;;;;;;12.22;35.61;101395.59;4996694;28;20437;-75
2021/12/18 09:15:10;;;;;;;3.05;2.35;;;;;;;12.43;35.88;101390.78;4995613;28;20036;-75
2021/12/18 09:17:36;;;;;;;4.68;3.28;;;;;;;12.17;35.17;101388.25;4996656;28;20038;-75
2021/12/18 09:20:03;;;;;;;5.97;3.00;;;;;;;11.94;35.98;101385.06;4995827;28;20456;-75
2021/12/18 09:22:29;;;;;;;2.88;2.30;;;;;;;12.48;35.99;101384.97;4996084;28;20089;-75
2021/12/18 09:24:54;;;;;;;3.30;2.45;;;;;;;12.10;35.92;101392.78;4997029;28;20034;-76
2021/12/18 09:27:22;;;;;;;4.88;1.88;;;;;;;13.00;35.61;101377.91;4998028;28;20038;-76
2021/12/18 09:29:49;;;;;;;4.45;2.20;;;;;;;13.28;34.54;101386.38;5000746;28;20097;-76
2021/12/18 09:32:15;;;;;;;6.18;2.13;;;;;;;12.52;34.77;101371.13;5000195;28;20061;-77
2021/12/18 09:34:51;;;;;;;1.70;1.25;;;;;;;12.97;34.83;101379.41;4999599;28;20030;-76
2021/12/18 09:37:17;;;;;;;3.95;2.15;;;;;;;12.99;34.41;101374.25;4979725;28;20054;-76
2021/12/18 09:39:42;;;;;;;2.35;1.83;;;;;;;12.99;33.84;101351.09;4996381;28;20062;-76
2021/12/18 09:42:40;;;;;;;4.47;2.38;;;;;;;13.15;34.24;101365.97;4995798;28;20034;-76
2021/12/18 09:45:07;;;;;;;4.32;3.15;;;;;;;13.34;34.56;101363.41;4996209;28;20101;-76
2021/12/18 09:47:33;;;;;;;4.25;2.15;;;;;;;13.35;34.31;101367.03;4997102;28;20037;-76
2021/12/18 09:50:14;;;;;;;5.10;1.92;;;;;;;13.05;35.16;101344.13;4995773;28;20027;-76
2021/12/18 09:52:39;;;;;;;6.60;1.65;;;;;;;13.16;34.47;101361.22;4995329;28;20050;-76
2021/12/18 09:55:06;;;;;;;4.40;2.00;;;;;;;13.33;34.39;101361.00;4995492;28;20066;-76
2021/12/18 09:57:33;;;;;;;2.38;1.60;;;;;;;13.50;34.09;101365.47;4997298;28;20030;-76
2021/12/18 09:59:59;;;;;;;3.03;1.90;;;;;;;13.74;32.76;101348.63;4996418;28;20424;-76
2021/12/18 10:02:24;;;;;;;4.15;2.25;;;;;;;13.85;33.13;101360.13;4996240;28;20030;-77
2021/12/18 10:04:50;;;;;;;2.58;2.13;;;;;;;13.94;32.82;101346.75;4995926;28;20030;-76
2021/12/18 10:07:30;;;;;;;5.35;1.85;;;;;;;13.99;33.07;101357.69;4996016;28;20034;-76
2021/12/18 10:09:58;;;;;;;4.50;2.15;;;;;;;14.05;33.03;101347.88;4996846;28;20030;-76
2021/12/18 10:12:27;;;;;;;4.35;2.60;;;;;;;14.41;32.11;101354.41;4995431;28;20385;-77
2021/12/18 10:14:57;;;;;;;18.30;12.05;;;;;;;13.91;32.14;101353.09;4997358;28;20106;-76
2021/12/18 10:17:35;;;;;;;6.30;3.25;;;;;;;14.22;31.99;101363.53;4995870;28;20030;-76
2021/12/18 10:20:10;;;;;;;3.65;1.80;;;;;;;13.92;31.26;101360.31;4998352;28;20137;-76
2021/12/18 10:22:55;;;;;;;2.42;1.50;;;;;;;13.96;30.79;101352.84;4995292;28;20133;-77
2021/12/18 10:25:23;;;;;;;4.80;2.70;;;;;;;13.86;31.54;101351.34;4998582;28;20369;-77
2021/12/18 10:28:13;;;;;;;2.13;1.50;;;;;;;14.35;30.61;101344.66;5000792;28;20082;-78
2021/12/18 10:30:51;;;;;;;3.45;1.83;;;;;;;13.71;30.47;101342.91;4997667;28;20040;-76
2021/12/18 10:33:18;;;;;;;5.45;2.63;;;;;;;13.38;31.38;101380.31;4998630;28;20061;-76
2021/12/18 10:35:45;;;;;;;6.63;1.95;;;;;;;13.47;30.71;101355.81;4997081;28;20030;-76
2021/12/18 10:38:39;;;;;;;2.83;1.90;;;;;;;13.29;31.58;101343.28;4997839;28;20026;-77
2021/12/18 10:41:25;;;;;;;5.68;2.22;;;;;;;13.39;31.02;101342.00;4998747;28;20049;-76
2021/12/18 10:44:02;;;;;;;5.55;3.35;;;;;;;12.67;32.45;101330.53;4998495;28;20081;-77
2021/12/18 10:46:29;;;;;;;3.67;2.25;;;;;;;12.04;33.12;101339.19;4996255;28;20037;-76
2021/12/18 10:49:11;;;;;;;7.60;3.40;;;;;;;12.72;32.67;101333.91;4996201;28;20085;-76
2021/12/18 10:51:38;;;;;;;2.25;1.58;;;;;;;12.68;32.28;101346.94;4998880;28;20030;-77
2021/12/18 10:54:15;;;;;;;2.60;1.73;;;;;;;13.18;31.32;101322.56;4998650;28;20042;-76
2021/12/18 10:56:51;;;;;;;3.40;1.83;;;;;;;11.77;33.12;101351.72;4996211;28;20045;-76
2021/12/18 10:59:24;;;;;;;5.90;1.85;;;;;;;12.06;33.24;101350.81;4995842;28;20104;-76
2021/12/18 11:01:56;;;;;;;6.13;2.75;;;;;;;11.84;33.85;101368.75;4995039;28;20564;-76
2021/12/18 11:04:33;;;;;;;5.05;2.45;;;;;;;11.84;34.65;101340.88;4978638;28;20052;-75
2021/12/18 11:07:15;;;;;;;3.90;2.28;;;;;;;12.25;33.39;101327.94;4995124;28;20030;-75
2021/12/18 11:09:46;;;;;;;1.73;1.60;;;;;;;12.43;33.49;101336.94;4995296;28;20432;-76
2021/12/18 11:15:03;;;;;;;4.15;2.17;;;;;;;12.94;32.28;101342.97;4996531;28;20118;-77
2021/12/18 11:17:29;;;;;;;4.10;2.90;;;;;;;12.81;32.70;101328.19;4996141;28;20113;-75
2021/12/18 11:19:55;;;;;;;6.22;2.47;;;;;;;12.68;32.09;101354.50;4978067;28;20051;-74
2021/12/18 11:23:04;;;;;;;3.28;1.65;;;;;;;12.38;32.12;101335.19;4998820;28;20038;-79
2021/12/18 11:25:29;;;;;;;5.47;2.88;;;;;;;13.39;32.29;101331.63;5001539;28;20006;-79
2021/12/18 11:27:56;;;;;;;4.50;2.55;;;;;;;13.93;31.34;101339.53;5001137;28;20097;-79
2021/12/18 11:30:38;;;;;;;6.38;3.28;;;;;;;14.01;31.20;101334.94;5001593;28;20023;-79
2021/12/18 11:33:05;;;;;;;3.90;3.40;;;;;;;14.14;30.87;101333.72;4986254;28;20030;-79
2021/12/18 11:35:30;;;;;;;4.85;3.50;;;;;;;13.08;30.80;101333.06;5004685;28;20045;-79
2021/12/18 11:38:01;;;;;;;5.28;2.90;;;;;;;13.51;30.48;101331.56;5008396;28;20042;-78
2021/12/18 11:40:32;;;;;;;3.40;2.67;;;;;;;13.77;30.82;101331.13;5002094;28;20097;-78
2021/12/18 11:46:37;;;;;;;3.17;2.47;;;;;;;12.31;30.65;101326.56;4991425;28;20141;-78
2021/12/18 11:49:08;;;;;;;4.75;1.63;;;;;;;12.00;31.13;101322.31;5004450;28;20124;-79
2021/12/18 11:52:32;;;;;;;3.55;2.00;;;;;;;11.94;31.82;101320.91;5001464;28;20064;-79
2021/12/18 11:55:00;;;;;;;2.25;1.83;;;;;;;12.11;31.74;101316.31;5003467;28;20090;-79
2021/12/18 11:57:48;;;;;;;2.95;2.65;;;;;;;12.96;30.98;101313.53;5005259;28;20031;-79
2021/12/18 12:00:23;;;;;;;4.47;2.63;;;;;;;12.63;31.14;101321.25;5004262;28;20117;-79
2021/12/18 12:03:10;;;;;;;5.70;3.10;;;;;;;12.82;31.47;101307.47;5005052;28;20465;-78
2021/12/18 12:05:43;;;;;;;2.83;2.35;;;;;;;12.99;31.27;101307.22;5005102;28;20043;-79
2021/12/18 12:11:27;;;;;;;5.00;3.22;;;;;;;12.80;31.43;101281.91;5027692;28;19910;-78
2021/12/18 12:14:03;;;;;;;3.35;2.75;;;;;;;12.13;31.15;101300.81;5014341;28;20030;-79
2021/12/18 12:17:10;;;;;;;3.45;1.90;;;;;;;12.43;31.65;101306.22;5026805;28;20085;-79
2021/12/18 12:19:35;;;;;;;4.28;2.88;;;;;;;12.20;31.35;101291.91;5003555;28;20480;-79
2021/12/18 12:22:31;;;;;;;1.90;1.63;;;;;;;11.47;31.29;101254.28;5003354;28;20125;-78
2021/12/18 12:25:07;;;;;;;2.85;1.90;;;;;;;11.70;31.62;101293.72;5004463;28;20030;-79
2021/12/18 12:27:39;;;;;;;2.15;1.85;;;;;;;11.37;32.96;101293.72;5001565;28;20029;-78
2021/12/18 12:30:28;;;;;;;2.97;2.25;;;;;;;10.99;33.23;101277.97;5001359;28;20472;-78
2021/12/18 12:33:07;;;;;;;5.90;2.03;;;;;;;11.47;33.05;101298.88;5000654;28;20026;-79
2021/12/18 12:35:52;;;;;;;3.05;2.10;;;;;;;11.74;32.83;101289.09;5019158;28;20084;-79
2021/12/18 12:38:27;;;;;;;2.75;2.28;;;;;;;11.25;33.12;101285.31;5000975;28;20026;-78
2021/12/18 12:40:56;;;;;;;5.53;1.92;;;;;;;11.05;33.77;101286.13;5018016;28;20060;-78
2021/12/18 12:43:29;;;;;;;3.72;1.65;;;;;;;11.15;33.38;101285.72;4984113;28;20080;-78
2021/12/18 12:46:04;;;;;;;4.40;2.17;;;;;;;11.27;33.41;101294.13;5017553;28;20028;-78
2021/12/18 12:49:16;;;;;;;8.75;3.85;;;;;;;11.46;33.61;101279.72;5000244;28;20072;-77
2021/12/18 12:52:03;;;;;;;4.88;3.47;;;;;;;11.65;34.08;101268.03;5019309;28;20037;-78